sensor_id;sensor_type;location;lat;lon;timestamp;temperature;humidity
2967;DHT22;1493;51.496;7.210;2023-12-20T00:00:37;8.60;99.90
2967;DHT22;1493;51.496;7.210;2023-12-20T00:03:04;8.50;99.90
2967;DHT22;1493;51.496;7.210;2023-12-20T00:05:31;8.40;99.90
2967;DHT22;1493;51.496;7.210;2023-12-20T00:08:00;8.40;99.90
2967;DHT22;1493;51.496;7.210;2023-12-20T00:10:27;8.50;99.90
2967;DHT22;1493;51.496;7.210;2023-12-20T00:12:53;8.40;99.90
2967;DHT22;1493;51.496;7.210;2023-12-20T00:15:20;8.50;99.90
2967;DHT22;1493;51.496;7.210;2023-12-20T00:17:47;8.40;99.90
2967;DHT22;1493;51.496;7.210;2023-12-20T00:20:21;8.40;99.90
2967;DHT22;1493;51.496;7.210;2023-12-20T00:22:51;8.30;99.90
2967;DHT22;1493;51.496;7.210;2023-12-20T00:25:21;8.30;99.90
2967;DHT22;1493;51.496;7.210;2023-12-20T00:27:48;8.30;99.90
2967;DHT22;1493;51.496;7.210;2023-12-20T00:30:15;8.30;99.90
2967;DHT22;1493;51.496;7.210;2023-12-20T00:32:42;8.20;99.90
2967;DHT22;1493;51.496;7.210;2023-12-20T00:35:12;8.20;99.90
2967;DHT22;1493;51.496;7.210;2023-12-20T00:37:39;8.10;99.90
2967;DHT22;1493;51.496;7.210;2023-12-20T00:40:06;8.10;99.90
2967;DHT22;1493;51.496;7.210;2023-12-20T00:42:35;8.00;99.90
2967;DHT22;1493;51.496;7.210;2023-12-20T00:45:02;7.90;99.90
2967;DHT22;1493;51.496;7.210;2023-12-20T00:47:30;7.80;99.90
2967;DHT22;1493;51.496;7.210;2023-12-20T00:49:57;7.80;99.90
2967;DHT22;1493;51.496;7.210;2023-12-20T00:52:24;7.80;99.90
2967;DHT22;1493;51.496;7.210;2023-12-20T00:54:51;7.80;99.90
2967;DHT22;1493;51.496;7.210;2023-12-20T00:57:18;7.80;99.90
2967;DHT22;1493;51.496;7.210;2023-12-20T00:59:46;7.70;99.90
2967;DHT22;1493;51.496;7.210;2023-12-20T01:02:13;7.70;99.90
2967;DHT22;1493;51.496;7.210;2023-12-20T01:04:40;7.70;99.90
2967;DHT22;1493;51.496;7.210;2023-12-20T01:07:08;7.70;99.90
2967;DHT22;1493;51.496;7.210;2023-12-20T01:09:35;7.70;99.90
2967;DHT22;1493;51.496;7.210;2023-12-20T01:12:01;7.70;99.90
2967;DHT22;1493;51.496;7.210;2023-12-20T01:14:28;7.70;99.90
2967;DHT22;1493;51.496;7.210;2023-12-20T01:16:57;7.70;99.90
2967;DHT22;1493;51.496;7.210;2023-12-20T01:19:24;7.70;99.90
2967;DHT22;1493;51.496;7.210;2023-12-20T01:21:52;7.70;99.90
2967;DHT22;1493;51.496;7.210;2023-12-20T01:24:19;7.70;99.90
2967;DHT22;1493;51.496;7.210;2023-12-20T01:26:46;7.80;99.90
2967;DHT22;1493;51.496;7.210;2023-12-20T01:29:13;7.80;99.90
2967;DHT22;1493;51.496;7.210;2023-12-20T01:31:40;7.80;99.90
2967;DHT22;1493;51.496;7.210;2023-12-20T01:34:08;7.80;99.90
2967;DHT22;1493;51.496;7.210;2023-12-20T01:36:35;7.70;99.90
2967;DHT22;1493;51.496;7.210;2023-12-20T01:39:02;7.70;99.90
2967;DHT22;1493;51.496;7.210;2023-12-20T01:41:29;7.70;99.90
2967;DHT22;1493;51.496;7.210;2023-12-20T01:43:56;7.80;99.90
2967;DHT22;1493;51.496;7.210;2023-12-20T01:46:23;7.70;99.90
2967;DHT22;1493;51.496;7.210;2023-12-20T01:48:51;7.70;99.90
2967;DHT22;1493;51.496;7.210;2023-12-20T01:51:20;7.70;99.90
2967;DHT22;1493;51.496;7.210;2023-12-20T01:53:48;7.70;99.90
2967;DHT22;1493;51.496;7.210;2023-12-20T01:56:16;7.60;99.90
2967;DHT22;1493;51.496;7.210;2023-12-20T01:58:44;7.60;99.90
2967;DHT22;1493;51.496;7.210;2023-12-20T02:01:14;7.60;99.90
2967;DHT22;1493;51.496;7.210;2023-12-20T02:03:45;7.60;99.90
2967;DHT22;1493;51.496;7.210;2023-12-20T02:06:19;7.40;99.90
2967;DHT22;1493;51.496;7.210;2023-12-20T02:12:45;7.20;99.90
2967;DHT22;1493;51.496;7.210;2023-12-20T02:15:32;7.20;99.90
2967;DHT22;1493;51.496;7.210;2023-12-20T02:18:40;7.10;99.90
2967;DHT22;1493;51.496;7.210;2023-12-20T02:28:23;6.80;99.90
2967;DHT22;1493;51.496;7.210;2023-12-20T02:36:07;6.90;99.90
2967;DHT22;1493;51.496;7.210;2023-12-20T02:38:34;6.90;99.90
2967;DHT22;1493;51.496;7.210;2023-12-20T02:41:00;7.00;99.90
2967;DHT22;1493;51.496;7.210;2023-12-20T02:43:29;7.10;99.90
2967;DHT22;1493;51.496;7.210;2023-12-20T02:45:55;7.10;99.90
2967;DHT22;1493;51.496;7.210;2023-12-20T02:48:22;7.10;99.90
2967;DHT22;1493;51.496;7.210;2023-12-20T02:50:49;7.20;99.90
2967;DHT22;1493;51.496;7.210;2023-12-20T02:53:16;7.20;99.90
2967;DHT22;1493;51.496;7.210;2023-12-20T02:55:43;7.20;99.90
2967;DHT22;1493;51.496;7.210;2023-12-20T02:58:12;7.20;99.90
2967;DHT22;1493;51.496;7.210;2023-12-20T03:03:53;7.30;99.90
2967;DHT22;1493;51.496;7.210;2023-12-20T03:06:19;7.30;99.90
2967;DHT22;1493;51.496;7.210;2023-12-20T03:08:46;7.30;99.90
2967;DHT22;1493;51.496;7.210;2023-12-20T03:11:13;7.30;99.90
2967;DHT22;1493;51.496;7.210;2023-12-20T03:13:40;7.20;99.90
2967;DHT22;1493;51.496;7.210;2023-12-20T03:16:09;7.20;99.90
2967;DHT22;1493;51.496;7.210;2023-12-20T03:18:37;7.20;99.90
2967;DHT22;1493;51.496;7.210;2023-12-20T03:24:29;7.20;99.90
2967;DHT22;1493;51.496;7.210;2023-12-20T03:26:55;7.20;99.90
2967;DHT22;1493;51.496;7.210;2023-12-20T03:29:22;7.30;99.90
2967;DHT22;1493;51.496;7.210;2023-12-20T03:31:55;7.20;99.90
2967;DHT22;1493;51.496;7.210;2023-12-20T03:34:32;7.20;99.90
2967;DHT22;1493;51.496;7.210;2023-12-20T03:36:59;7.10;99.90
2967;DHT22;1493;51.496;7.210;2023-12-20T03:39:42;7.10;99.90
2967;DHT22;1493;51.496;7.210;2023-12-20T03:43:58;7.10;99.90
2967;DHT22;1493;51.496;7.210;2023-12-20T03:45:57;7.00;99.90
2967;DHT22;1493;51.496;7.210;2023-12-20T03:48:25;7.00;99.90
2967;DHT22;1493;51.496;7.210;2023-12-20T03:50:54;7.00;99.90
2967;DHT22;1493;51.496;7.210;2023-12-20T03:53:21;6.90;99.90
2967;DHT22;1493;51.496;7.210;2023-12-20T03:55:48;6.90;99.90
2967;DHT22;1493;51.496;7.210;2023-12-20T03:58:15;6.80;99.90
2967;DHT22;1493;51.496;7.210;2023-12-20T04:00:41;6.70;99.90
2967;DHT22;1493;51.496;7.210;2023-12-20T04:03:10;6.70;99.90
2967;DHT22;1493;51.496;7.210;2023-12-20T04:05:40;6.80;99.90
2967;DHT22;1493;51.496;7.210;2023-12-20T04:08:07;6.70;99.90
2967;DHT22;1493;51.496;7.210;2023-12-20T04:10:34;6.70;99.90
2967;DHT22;1493;51.496;7.210;2023-12-20T04:13:03;6.70;99.90
2967;DHT22;1493;51.496;7.210;2023-12-20T04:15:30;6.80;99.90
2967;DHT22;1493;51.496;7.210;2023-12-20T04:17:57;6.70;99.90
2967;DHT22;1493;51.496;7.210;2023-12-20T04:20:23;6.70;99.90
2967;DHT22;1493;51.496;7.210;2023-12-20T04:22:52;6.70;99.90
2967;DHT22;1493;51.496;7.210;2023-12-20T04:25:19;6.60;99.90
2967;DHT22;1493;51.496;7.210;2023-12-20T04:27:45;6.40;99.90
2967;DHT22;1493;51.496;7.210;2023-12-20T04:30:13;6.40;99.90
2967;DHT22;1493;51.496;7.210;2023-12-20T04:32:39;6.30;99.90
2967;DHT22;1493;51.496;7.210;2023-12-20T04:35:06;6.30;99.90
2967;DHT22;1493;51.496;7.210;2023-12-20T04:37:34;6.30;99.90
2967;DHT22;1493;51.496;7.210;2023-12-20T04:40:02;6.30;99.90
2967;DHT22;1493;51.496;7.210;2023-12-20T04:42:30;6.30;99.90
2967;DHT22;1493;51.496;7.210;2023-12-20T04:44:57;6.30;99.90
2967;DHT22;1493;51.496;7.210;2023-12-20T04:47:24;6.30;99.90
2967;DHT22;1493;51.496;7.210;2023-12-20T04:49:51;6.30;99.90
2967;DHT22;1493;51.496;7.210;2023-12-20T04:52:18;6.40;99.90
2967;DHT22;1493;51.496;7.210;2023-12-20T04:54:45;6.40;99.90
2967;DHT22;1493;51.496;7.210;2023-12-20T04:57:13;6.30;99.90
2967;DHT22;1493;51.496;7.210;2023-12-20T04:59:40;6.30;99.90
2967;DHT22;1493;51.496;7.210;2023-12-20T05:02:07;6.30;99.90
2967;DHT22;1493;51.496;7.210;2023-12-20T05:04:34;6.40;99.90
2967;DHT22;1493;51.496;7.210;2023-12-20T05:07:00;6.40;99.90
2967;DHT22;1493;51.496;7.210;2023-12-20T05:09:27;6.40;99.90
2967;DHT22;1493;51.496;7.210;2023-12-20T05:11:54;6.50;99.90
2967;DHT22;1493;51.496;7.210;2023-12-20T05:14:22;6.50;99.90
2967;DHT22;1493;51.496;7.210;2023-12-20T05:16:50;6.60;99.90
2967;DHT22;1493;51.496;7.210;2023-12-20T05:19:17;6.60;99.90
2967;DHT22;1493;51.496;7.210;2023-12-20T05:21:43;6.60;99.90
2967;DHT22;1493;51.496;7.210;2023-12-20T05:24:10;6.60;99.90
2967;DHT22;1493;51.496;7.210;2023-12-20T05:26:37;6.50;99.90
2967;DHT22;1493;51.496;7.210;2023-12-20T05:29:09;6.50;99.90
2967;DHT22;1493;51.496;7.210;2023-12-20T05:31:45;6.50;99.90
2967;DHT22;1493;51.496;7.210;2023-12-20T05:34:20;6.50;99.90
2967;DHT22;1493;51.496;7.210;2023-12-20T05:36:54;6.50;99.90
2967;DHT22;1493;51.496;7.210;2023-12-20T05:39:21;6.50;99.90
2967;DHT22;1493;51.496;7.210;2023-12-20T05:45:19;6.50;99.90
2967;DHT22;1493;51.496;7.210;2023-12-20T05:47:56;6.40;99.90
2967;DHT22;1493;51.496;7.210;2023-12-20T05:50:24;6.30;99.90
2967;DHT22;1493;51.496;7.210;2023-12-20T05:52:51;8.30;99.90
2967;DHT22;1493;51.496;7.210;2023-12-20T05:55:20;6.30;99.90
2967;DHT22;1493;51.496;7.210;2023-12-20T05:57:47;6.40;99.90
2967;DHT22;1493;51.496;7.210;2023-12-20T06:00:15;6.40;99.90
2967;DHT22;1493;51.496;7.210;2023-12-20T06:02:42;6.50;99.90
2967;DHT22;1493;51.496;7.210;2023-12-20T06:05:10;6.50;99.90
2967;DHT22;1493;51.496;7.210;2023-12-20T06:07:37;6.50;99.90
2967;DHT22;1493;51.496;7.210;2023-12-20T06:10:05;6.60;99.90
2967;DHT22;1493;51.496;7.210;2023-12-20T06:12:32;6.60;99.90
2967;DHT22;1493;51.496;7.210;2023-12-20T06:15:01;6.60;99.90
2967;DHT22;1493;51.496;7.210;2023-12-20T06:17:28;6.60;99.90
2967;DHT22;1493;51.496;7.210;2023-12-20T06:19:57;6.60;99.90
2967;DHT22;1493;51.496;7.210;2023-12-20T06:22:25;6.60;99.90
2967;DHT22;1493;51.496;7.210;2023-12-20T06:24:52;6.70;99.90
2967;DHT22;1493;51.496;7.210;2023-12-20T06:27:19;6.70;99.90
2967;DHT22;1493;51.496;7.210;2023-12-20T06:29:45;6.70;99.90
2967;DHT22;1493;51.496;7.210;2023-12-20T06:32:12;6.80;99.90
2967;DHT22;1493;51.496;7.210;2023-12-20T06:34:39;6.80;99.90
2967;DHT22;1493;51.496;7.210;2023-12-20T06:37:06;6.80;99.90
2967;DHT22;1493;51.496;7.210;2023-12-20T06:39:34;6.70;99.90
2967;DHT22;1493;51.496;7.210;2023-12-20T06:42:01;6.80;99.90
2967;DHT22;1493;51.496;7.210;2023-12-20T06:44:28;6.70;99.90
2967;DHT22;1493;51.496;7.210;2023-12-20T06:46:55;6.70;99.90
2967;DHT22;1493;51.496;7.210;2023-12-20T06:49:22;6.70;99.90
2967;DHT22;1493;51.496;7.210;2023-12-20T06:51:48;6.80;99.90
2967;DHT22;1493;51.496;7.210;2023-12-20T06:54:18;6.90;99.90
2967;DHT22;1493;51.496;7.210;2023-12-20T06:56:47;6.80;99.90
2967;DHT22;1493;51.496;7.210;2023-12-20T06:59:13;6.90;99.90
2967;DHT22;1493;51.496;7.210;2023-12-20T07:01:40;6.90;99.90
2967;DHT22;1493;51.496;7.210;2023-12-20T07:04:08;6.90;99.90
2967;DHT22;1493;51.496;7.210;2023-12-20T07:06:35;6.80;99.90
2967;DHT22;1493;51.496;7.210;2023-12-20T07:09:01;6.80;99.90
2967;DHT22;1493;51.496;7.210;2023-12-20T07:11:28;6.80;99.90
2967;DHT22;1493;51.496;7.210;2023-12-20T07:13:56;6.80;99.90
2967;DHT22;1493;51.496;7.210;2023-12-20T07:16:23;6.90;99.90
2967;DHT22;1493;51.496;7.210;2023-12-20T07:18:50;6.90;99.90
2967;DHT22;1493;51.496;7.210;2023-12-20T07:21:18;6.90;99.90
2967;DHT22;1493;51.496;7.210;2023-12-20T07:23:44;6.90;99.90
2967;DHT22;1493;51.496;7.210;2023-12-20T07:26:12;7.00;99.90
2967;DHT22;1493;51.496;7.210;2023-12-20T07:28:39;7.00;99.90
2967;DHT22;1493;51.496;7.210;2023-12-20T07:31:08;7.00;99.90
2967;DHT22;1493;51.496;7.210;2023-12-20T07:33:35;7.00;99.90
2967;DHT22;1493;51.496;7.210;2023-12-20T07:36:02;7.10;99.90
2967;DHT22;1493;51.496;7.210;2023-12-20T07:38:29;7.00;99.90
2967;DHT22;1493;51.496;7.210;2023-12-20T07:40:56;7.00;99.90
2967;DHT22;1493;51.496;7.210;2023-12-20T07:43:22;7.00;99.90
2967;DHT22;1493;51.496;7.210;2023-12-20T07:45:49;7.00;99.90
2967;DHT22;1493;51.496;7.210;2023-12-20T07:48:17;7.00;99.90
2967;DHT22;1493;51.496;7.210;2023-12-20T07:50:44;7.10;99.90
2967;DHT22;1493;51.496;7.210;2023-12-20T07:53:11;7.10;99.90
2967;DHT22;1493;51.496;7.210;2023-12-20T07:55:39;7.20;99.90
2967;DHT22;1493;51.496;7.210;2023-12-20T07:58:06;7.20;99.90
2967;DHT22;1493;51.496;7.210;2023-12-20T08:00:32;7.20;99.90
2967;DHT22;1493;51.496;7.210;2023-12-20T08:02:59;7.20;99.90
2967;DHT22;1493;51.496;7.210;2023-12-20T08:05:30;7.20;99.90
2967;DHT22;1493;51.496;7.210;2023-12-20T08:07:57;7.20;99.90
2967;DHT22;1493;51.496;7.210;2023-12-20T08:10:24;7.20;99.90
2967;DHT22;1493;51.496;7.210;2023-12-20T08:12:51;7.20;99.90
2967;DHT22;1493;51.496;7.210;2023-12-20T08:15:17;7.20;99.90
2967;DHT22;1493;51.496;7.210;2023-12-20T08:17:44;7.20;99.90
2967;DHT22;1493;51.496;7.210;2023-12-20T08:20:11;7.20;99.90
2967;DHT22;1493;51.496;7.210;2023-12-20T08:22:39;7.30;99.90
2967;DHT22;1493;51.496;7.210;2023-12-20T08:25:07;7.30;99.90
2967;DHT22;1493;51.496;7.210;2023-12-20T08:27:34;7.20;99.90
2967;DHT22;1493;51.496;7.210;2023-12-20T08:30:03;7.30;99.90
2967;DHT22;1493;51.496;7.210;2023-12-20T08:32:30;7.40;99.90
2967;DHT22;1493;51.496;7.210;2023-12-20T08:34:57;7.40;99.90
2967;DHT22;1493;51.496;7.210;2023-12-20T08:37:24;7.40;99.90
2967;DHT22;1493;51.496;7.210;2023-12-20T08:39:57;7.40;99.90
2967;DHT22;1493;51.496;7.210;2023-12-20T08:42:24;7.40;99.90
2967;DHT22;1493;51.496;7.210;2023-12-20T08:44:56;7.40;99.90
2967;DHT22;1493;51.496;7.210;2023-12-20T08:47:23;7.40;99.90
2967;DHT22;1493;51.496;7.210;2023-12-20T08:49:50;7.40;99.90
2967;DHT22;1493;51.496;7.210;2023-12-20T08:52:21;7.40;99.90
2967;DHT22;1493;51.496;7.210;2023-12-20T08:54:48;7.40;99.90
2967;DHT22;1493;51.496;7.210;2023-12-20T08:57:19;7.40;99.90
2967;DHT22;1493;51.496;7.210;2023-12-20T08:59:46;7.40;99.90
2967;DHT22;1493;51.496;7.210;2023-12-20T09:02:14;7.50;99.90
2967;DHT22;1493;51.496;7.210;2023-12-20T09:04:40;7.50;99.90
2967;DHT22;1493;51.496;7.210;2023-12-20T09:07:21;7.50;99.90
2967;DHT22;1493;51.496;7.210;2023-12-20T09:09:47;7.50;99.90
2967;DHT22;1493;51.496;7.210;2023-12-20T09:12:14;7.60;99.90
2967;DHT22;1493;51.496;7.210;2023-12-20T09:14:42;7.60;99.90
2967;DHT22;1493;51.496;7.210;2023-12-20T09:17:09;7.50;99.90
2967;DHT22;1493;51.496;7.210;2023-12-20T09:19:37;7.50;99.90
2967;DHT22;1493;51.496;7.210;2023-12-20T09:22:04;7.60;99.90
2967;DHT22;1493;51.496;7.210;2023-12-20T09:24:31;7.60;99.90
2967;DHT22;1493;51.496;7.210;2023-12-20T09:26:58;7.60;99.90
2967;DHT22;1493;51.496;7.210;2023-12-20T09:29:25;7.60;99.90
2967;DHT22;1493;51.496;7.210;2023-12-20T09:31:53;7.50;99.90
2967;DHT22;1493;51.496;7.210;2023-12-20T09:34:20;7.50;99.90
2967;DHT22;1493;51.496;7.210;2023-12-20T09:36:47;7.50;99.90
2967;DHT22;1493;51.496;7.210;2023-12-20T09:39:14;7.50;99.90
2967;DHT22;1493;51.496;7.210;2023-12-20T09:41:54;7.50;99.90
2967;DHT22;1493;51.496;7.210;2023-12-20T09:44:22;7.50;99.90
2967;DHT22;1493;51.496;7.210;2023-12-20T09:46:50;7.50;99.90
2967;DHT22;1493;51.496;7.210;2023-12-20T09:49:18;7.60;99.90
2967;DHT22;1493;51.496;7.210;2023-12-20T09:51:46;7.50;99.90
2967;DHT22;1493;51.496;7.210;2023-12-20T09:54:14;7.60;99.90
2967;DHT22;1493;51.496;7.210;2023-12-20T09:56:42;7.60;99.90
2967;DHT22;1493;51.496;7.210;2023-12-20T09:59:09;7.60;99.90
2967;DHT22;1493;51.496;7.210;2023-12-20T10:01:36;7.60;99.90
2967;DHT22;1493;51.496;7.210;2023-12-20T10:04:06;7.70;99.90
2967;DHT22;1493;51.496;7.210;2023-12-20T10:06:36;7.70;99.90
2967;DHT22;1493;51.496;7.210;2023-12-20T10:09:03;7.70;99.90
2967;DHT22;1493;51.496;7.210;2023-12-20T10:11:31;7.70;99.90
2967;DHT22;1493;51.496;7.210;2023-12-20T10:13:59;7.80;99.90
2967;DHT22;1493;51.496;7.210;2023-12-20T10:16:27;7.90;99.90
2967;DHT22;1493;51.496;7.210;2023-12-20T10:18:54;8.00;99.90
2967;DHT22;1493;51.496;7.210;2023-12-20T10:21:21;8.10;99.90
2967;DHT22;1493;51.496;7.210;2023-12-20T10:23:50;8.00;99.90
2967;DHT22;1493;51.496;7.210;2023-12-20T10:26:19;7.90;99.90
2967;DHT22;1493;51.496;7.210;2023-12-20T10:28:49;7.90;99.90
2967;DHT22;1493;51.496;7.210;2023-12-20T10:31:26;7.90;99.90
2967;DHT22;1493;51.496;7.210;2023-12-20T10:33:53;7.90;99.90
2967;DHT22;1493;51.496;7.210;2023-12-20T10:36:20;7.90;99.90
2967;DHT22;1493;51.496;7.210;2023-12-20T10:38:49;7.90;99.90
2967;DHT22;1493;51.496;7.210;2023-12-20T10:41:22;7.80;99.90
2967;DHT22;1493;51.496;7.210;2023-12-20T10:43:50;7.80;99.90
2967;DHT22;1493;51.496;7.210;2023-12-20T10:46:18;7.90;99.90
2967;DHT22;1493;51.496;7.210;2023-12-20T10:48:45;7.90;99.90
2967;DHT22;1493;51.496;7.210;2023-12-20T10:51:14;7.90;99.90
2967;DHT22;1493;51.496;7.210;2023-12-20T10:53:44;7.90;99.90
2967;DHT22;1493;51.496;7.210;2023-12-20T10:56:16;7.90;99.90
2967;DHT22;1493;51.496;7.210;2023-12-20T10:58:44;7.90;99.90
2967;DHT22;1493;51.496;7.210;2023-12-20T11:01:13;7.90;99.90
2967;DHT22;1493;51.496;7.210;2023-12-20T11:03:44;7.80;99.90
2967;DHT22;1493;51.496;7.210;2023-12-20T11:06:24;7.80;99.90
2967;DHT22;1493;51.496;7.210;2023-12-20T11:08:55;7.70;99.90
2967;DHT22;1493;51.496;7.210;2023-12-20T11:11:38;7.80;99.90
2967;DHT22;1493;51.496;7.210;2023-12-20T11:14:15;7.80;99.90
2967;DHT22;1493;51.496;7.210;2023-12-20T11:16:43;7.80;99.90
2967;DHT22;1493;51.496;7.210;2023-12-20T11:19:11;7.90;99.90
2967;DHT22;1493;51.496;7.210;2023-12-20T11:21:39;7.90;99.90
2967;DHT22;1493;51.496;7.210;2023-12-20T11:24:06;8.10;99.90
2967;DHT22;1493;51.496;7.210;2023-12-20T11:26:34;8.20;99.90
2967;DHT22;1493;51.496;7.210;2023-12-20T11:29:29;8.40;99.90
2967;DHT22;1493;51.496;7.210;2023-12-20T11:31:56;8.40;99.90
2967;DHT22;1493;51.496;7.210;2023-12-20T11:34:27;8.40;99.90
2967;DHT22;1493;51.496;7.210;2023-12-20T11:36:57;8.20;99.90
2967;DHT22;1493;51.496;7.210;2023-12-20T11:39:25;8.20;99.90
2967;DHT22;1493;51.496;7.210;2023-12-20T11:41:57;8.10;99.90
2967;DHT22;1493;51.496;7.210;2023-12-20T11:44:30;8.00;99.90
2967;DHT22;1493;51.496;7.210;2023-12-20T11:46:58;7.90;99.90
2967;DHT22;1493;51.496;7.210;2023-12-20T11:49:25;7.90;99.90
2967;DHT22;1493;51.496;7.210;2023-12-20T11:51:54;7.90;99.90
2967;DHT22;1493;51.496;7.210;2023-12-20T11:54:21;7.90;99.90
2967;DHT22;1493;51.496;7.210;2023-12-20T11:56:48;7.90;99.90
2967;DHT22;1493;51.496;7.210;2023-12-20T11:59:16;7.90;99.90
2967;DHT22;1493;51.496;7.210;2023-12-20T12:01:48;7.80;99.90
2967;DHT22;1493;51.496;7.210;2023-12-20T12:04:15;8.00;99.90
2967;DHT22;1493;51.496;7.210;2023-12-20T12:06:43;8.00;99.90
2967;DHT22;1493;51.496;7.210;2023-12-20T12:09:09;8.00;99.90
2967;DHT22;1493;51.496;7.210;2023-12-20T12:11:36;8.00;99.90
2967;DHT22;1493;51.496;7.210;2023-12-20T12:14:03;7.90;99.90
2967;DHT22;1493;51.496;7.210;2023-12-20T12:16:32;7.70;99.90
2967;DHT22;1493;51.496;7.210;2023-12-20T12:18:59;7.70;99.90
2967;DHT22;1493;51.496;7.210;2023-12-20T12:21:26;7.60;99.90
2967;DHT22;1493;51.496;7.210;2023-12-20T12:23:53;7.60;99.90
2967;DHT22;1493;51.496;7.210;2023-12-20T12:26:19;7.60;99.90
2967;DHT22;1493;51.496;7.210;2023-12-20T12:28:46;7.60;99.90
2967;DHT22;1493;51.496;7.210;2023-12-20T12:31:14;7.50;99.90
2967;DHT22;1493;51.496;7.210;2023-12-20T12:33:43;7.50;99.90
2967;DHT22;1493;51.496;7.210;2023-12-20T12:36:10;7.50;99.90
2967;DHT22;1493;51.496;7.210;2023-12-20T12:38:41;7.60;99.90
2967;DHT22;1493;51.496;7.210;2023-12-20T12:41:08;7.60;99.90
2967;DHT22;1493;51.496;7.210;2023-12-20T12:43:36;7.70;99.90
2967;DHT22;1493;51.496;7.210;2023-12-20T12:46:03;7.60;99.90
2967;DHT22;1493;51.496;7.210;2023-12-20T12:48:30;7.60;99.90
2967;DHT22;1493;51.496;7.210;2023-12-20T12:50:58;7.60;99.90
2967;DHT22;1493;51.496;7.210;2023-12-20T12:53:25;7.50;99.90
2967;DHT22;1493;51.496;7.210;2023-12-20T12:55:53;7.60;99.90
2967;DHT22;1493;51.496;7.210;2023-12-20T12:58:20;7.60;99.90
2967;DHT22;1493;51.496;7.210;2023-12-20T13:00:47;7.60;99.90
2967;DHT22;1493;51.496;7.210;2023-12-20T13:03:14;7.60;99.90
2967;DHT22;1493;51.496;7.210;2023-12-20T13:05:42;7.70;99.90
2967;DHT22;1493;51.496;7.210;2023-12-20T13:08:10;7.70;99.90
2967;DHT22;1493;51.496;7.210;2023-12-20T13:10:39;7.70;99.90
2967;DHT22;1493;51.496;7.210;2023-12-20T13:13:06;7.80;99.90
2967;DHT22;1493;51.496;7.210;2023-12-20T13:15:33;7.60;99.90
2967;DHT22;1493;51.496;7.210;2023-12-20T13:17:59;7.80;99.90
2967;DHT22;1493;51.496;7.210;2023-12-20T13:20:26;7.80;99.90
2967;DHT22;1493;51.496;7.210;2023-12-20T13:22:53;7.80;99.90
2967;DHT22;1493;51.496;7.210;2023-12-20T13:25:21;7.80;99.90
2967;DHT22;1493;51.496;7.210;2023-12-20T13:27:49;7.80;99.90
2967;DHT22;1493;51.496;7.210;2023-12-20T13:30:16;7.90;99.90
2967;DHT22;1493;51.496;7.210;2023-12-20T13:32:44;7.90;99.90
2967;DHT22;1493;51.496;7.210;2023-12-20T13:35:10;7.90;99.90
2967;DHT22;1493;51.496;7.210;2023-12-20T13:37:39;7.90;99.90
2967;DHT22;1493;51.496;7.210;2023-12-20T13:40:07;7.90;99.90
2967;DHT22;1493;51.496;7.210;2023-12-20T13:42:35;7.90;99.90
2967;DHT22;1493;51.496;7.210;2023-12-20T13:45:03;7.80;99.90
2967;DHT22;1493;51.496;7.210;2023-12-20T13:47:30;7.80;99.90
2967;DHT22;1493;51.496;7.210;2023-12-20T13:49:57;7.80;99.90
2967;DHT22;1493;51.496;7.210;2023-12-20T13:52:23;7.70;99.90
2967;DHT22;1493;51.496;7.210;2023-12-20T13:54:50;7.70;99.90
2967;DHT22;1493;51.496;7.210;2023-12-20T13:57:17;7.70;99.90
2967;DHT22;1493;51.496;7.210;2023-12-20T13:59:45;7.70;99.90
2967;DHT22;1493;51.496;7.210;2023-12-20T14:02:18;7.70;99.90
2967;DHT22;1493;51.496;7.210;2023-12-20T14:04:45;7.70;99.90
2967;DHT22;1493;51.496;7.210;2023-12-20T14:07:12;7.60;99.90
2967;DHT22;1493;51.496;7.210;2023-12-20T14:09:39;7.60;99.90
2967;DHT22;1493;51.496;7.210;2023-12-20T14:12:10;7.50;99.90
2967;DHT22;1493;51.496;7.210;2023-12-20T14:14:37;7.60;99.90
2967;DHT22;1493;51.496;7.210;2023-12-20T14:17:05;7.50;99.90
2967;DHT22;1493;51.496;7.210;2023-12-20T14:19:33;7.60;99.90
2967;DHT22;1493;51.496;7.210;2023-12-20T14:21:59;7.50;99.90
2967;DHT22;1493;51.496;7.210;2023-12-20T14:24:27;7.60;99.90
2967;DHT22;1493;51.496;7.210;2023-12-20T14:26:54;7.50;99.90
2967;DHT22;1493;51.496;7.210;2023-12-20T14:29:21;7.60;99.90
2967;DHT22;1493;51.496;7.210;2023-12-20T14:31:48;7.60;99.90
2967;DHT22;1493;51.496;7.210;2023-12-20T14:34:16;7.60;99.90
2967;DHT22;1493;51.496;7.210;2023-12-20T14:36:43;7.60;99.90
2967;DHT22;1493;51.496;7.210;2023-12-20T14:39:10;7.60;99.90
2967;DHT22;1493;51.496;7.210;2023-12-20T14:41:38;7.60;99.90
2967;DHT22;1493;51.496;7.210;2023-12-20T14:44:05;7.60;99.90
2967;DHT22;1493;51.496;7.210;2023-12-20T14:46:32;7.60;99.90
2967;DHT22;1493;51.496;7.210;2023-12-20T14:48:59;7.70;99.90
2967;DHT22;1493;51.496;7.210;2023-12-20T14:51:28;7.70;99.90
2967;DHT22;1493;51.496;7.210;2023-12-20T14:53:55;7.80;99.90
2967;DHT22;1493;51.496;7.210;2023-12-20T14:56:23;7.80;99.90
2967;DHT22;1493;51.496;7.210;2023-12-20T14:58:51;7.70;99.90
2967;DHT22;1493;51.496;7.210;2023-12-20T15:01:18;7.70;99.90
2967;DHT22;1493;51.496;7.210;2023-12-20T15:03:46;7.70;99.90
2967;DHT22;1493;51.496;7.210;2023-12-20T15:06:13;7.80;99.90
2967;DHT22;1493;51.496;7.210;2023-12-20T15:08:41;7.80;99.90
2967;DHT22;1493;51.496;7.210;2023-12-20T15:11:08;7.80;99.90
2967;DHT22;1493;51.496;7.210;2023-12-20T15:13:35;7.80;99.90
2967;DHT22;1493;51.496;7.210;2023-12-20T15:16:02;7.80;99.90
2967;DHT22;1493;51.496;7.210;2023-12-20T15:18:30;7.80;99.90
2967;DHT22;1493;51.496;7.210;2023-12-20T15:20:57;7.80;99.90
2967;DHT22;1493;51.496;7.210;2023-12-20T15:23:25;7.80;99.90
2967;DHT22;1493;51.496;7.210;2023-12-20T15:25:55;7.70;99.90
2967;DHT22;1493;51.496;7.210;2023-12-20T15:28:22;7.70;99.90
2967;DHT22;1493;51.496;7.210;2023-12-20T15:30:49;7.80;99.90
2967;DHT22;1493;51.496;7.210;2023-12-20T15:33:15;7.80;99.90
2967;DHT22;1493;51.496;7.210;2023-12-20T15:35:42;7.80;99.90
2967;DHT22;1493;51.496;7.210;2023-12-20T15:38:09;7.80;99.90
2967;DHT22;1493;51.496;7.210;2023-12-20T15:40:36;7.80;99.90
2967;DHT22;1493;51.496;7.210;2023-12-20T15:43:04;7.80;99.90
2967;DHT22;1493;51.496;7.210;2023-12-20T15:45:31;7.80;99.90
2967;DHT22;1493;51.496;7.210;2023-12-20T15:47:58;7.70;99.90
2967;DHT22;1493;51.496;7.210;2023-12-20T15:50:25;7.80;99.90
2967;DHT22;1493;51.496;7.210;2023-12-20T15:52:52;7.80;99.90
2967;DHT22;1493;51.496;7.210;2023-12-20T15:55:20;7.80;99.90
2967;DHT22;1493;51.496;7.210;2023-12-20T15:57:47;7.70;99.90
2967;DHT22;1493;51.496;7.210;2023-12-20T16:00:16;7.80;99.90
2967;DHT22;1493;51.496;7.210;2023-12-20T16:02:43;7.80;99.90
2967;DHT22;1493;51.496;7.210;2023-12-20T16:05:10;7.80;99.90
2967;DHT22;1493;51.496;7.210;2023-12-20T16:07:39;7.80;99.90
2967;DHT22;1493;51.496;7.210;2023-12-20T16:10:07;7.90;99.90
2967;DHT22;1493;51.496;7.210;2023-12-20T16:12:34;7.90;99.90
2967;DHT22;1493;51.496;7.210;2023-12-20T16:15:01;8.00;99.90
2967;DHT22;1493;51.496;7.210;2023-12-20T16:17:29;8.00;99.90
2967;DHT22;1493;51.496;7.210;2023-12-20T16:19:56;8.00;99.90
2967;DHT22;1493;51.496;7.210;2023-12-20T16:22:23;8.00;99.90
2967;DHT22;1493;51.496;7.210;2023-12-20T16:24:52;8.00;99.90
2967;DHT22;1493;51.496;7.210;2023-12-20T16:27:19;8.00;99.90
2967;DHT22;1493;51.496;7.210;2023-12-20T16:29:46;8.00;99.90
2967;DHT22;1493;51.496;7.210;2023-12-20T16:32:13;7.90;99.90
2967;DHT22;1493;51.496;7.210;2023-12-20T16:34:41;7.90;99.90
2967;DHT22;1493;51.496;7.210;2023-12-20T16:37:09;7.90;99.90
2967;DHT22;1493;51.496;7.210;2023-12-20T16:39:35;7.90;99.90
2967;DHT22;1493;51.496;7.210;2023-12-20T16:42:03;8.00;99.90
2967;DHT22;1493;51.496;7.210;2023-12-20T16:44:29;8.00;99.90
2967;DHT22;1493;51.496;7.210;2023-12-20T16:46:56;8.10;99.90
2967;DHT22;1493;51.496;7.210;2023-12-20T16:49:23;8.10;99.90